Pagrindinis puslapis
METAR-TAF:

METAR-TAF

Oro uostai :

Nain, Niufaundlandas ir Labradoras, Kanada

platuma: 56-33N, ilguma: 061-41W, Aukštis: 6 m

Dabartinis oras

Ataskaita buvo paskelbta 57 minutes, ne 20:00 UTC
Vėjas 4 kt nuo kintamojo kryptimis
Temperatūra -20°C
Drėgmė 53%
Slėgis 1002 hPa
Matomumas: 24.1 km
Giedras dangus

METAR: CYDP 202000Z VRB04KT 15SM SKC M20/M27 A2960 RMK SLP025

Laikas: 16:57 (20:57 UTC)

Prognozė

Ataskaita buvo paskelbta 1 valandą ir 19 minutes, ne 19:38 UTC
Prognozė galioja nuo 20 metu 20 UTC su 20 metu 24 UTC
Vėjas 12 kt iš Vakarų su gūsio iki 22 kt
Matomumas: 10 km
Mažai debesys ne aukštis 21000 ft

TAF: CYDP 201938Z 2020/2024 27012G22KT P6SM FEW210 RMK NXT FCST WILL BE ISSUED AT 211045Z

Orai ataskaitas ir orų prognozės (METAR, TAF).

turimą stotys yra geltonos ir raudonos taškus žemėlapyje.

Perkelti pele per norėdami pamatyti stoties vardą.

Tada spustelėkite, norėdami matyti oro stebėjimo ir prognozės.

Norėdami pakeisti žemėlapį: spustelėkite ant žalios mygtukų su juodo kryžiaus žemyn,; žalią mygtuką su brūkšneliu, jei norite nutolinti; arba žalių rodyklių gretimoms žemėlapius.


METAR-TAF: